sensor_id;sensor_type;location;lat;lon;timestamp;temperature;humidity
21590;DHT22;10957;50.968;6.828;2023-02-28T00:03:18;0.00;1.00
21590;DHT22;10957;50.968;6.828;2023-02-28T00:08:19;0.00;1.00
21590;DHT22;10957;50.968;6.828;2023-02-28T00:13:20;0.30;1.00
21590;DHT22;10957;50.968;6.828;2023-02-28T00:18:21;0.20;1.00
21590;DHT22;10957;50.968;6.828;2023-02-28T00:23:23;0.00;1.00
21590;DHT22;10957;50.968;6.828;2023-02-28T00:28:24;-0.20;1.00
21590;DHT22;10957;50.968;6.828;2023-02-28T00:33:26;0.20;1.00
21590;DHT22;10957;50.968;6.828;2023-02-28T00:38:29;-0.40;1.00
21590;DHT22;10957;50.968;6.828;2023-02-28T00:43:34;-0.20;1.00
21590;DHT22;10957;50.968;6.828;2023-02-28T00:48:36;-0.20;1.00
21590;DHT22;10957;50.968;6.828;2023-02-28T00:53:38;-0.20;1.00
21590;DHT22;10957;50.968;6.828;2023-02-28T00:58:39;-0.10;1.00
21590;DHT22;10957;50.968;6.828;2023-02-28T01:03:41;0.00;1.00
21590;DHT22;10957;50.968;6.828;2023-02-28T01:08:43;0.20;1.00
21590;DHT22;10957;50.968;6.828;2023-02-28T01:13:45;-0.20;1.00
21590;DHT22;10957;50.968;6.828;2023-02-28T01:18:47;0.00;1.00
21590;DHT22;10957;50.968;6.828;2023-02-28T01:23:48;-0.20;1.00
21590;DHT22;10957;50.968;6.828;2023-02-28T01:28:51;0.00;1.00
21590;DHT22;10957;50.968;6.828;2023-02-28T01:33:53;-0.10;1.00
21590;DHT22;10957;50.968;6.828;2023-02-28T01:38:54;0.00;1.00
21590;DHT22;10957;50.968;6.828;2023-02-28T01:44:05;0.10;1.00
21590;DHT22;10957;50.968;6.828;2023-02-28T01:49:13;0.00;1.00
21590;DHT22;10957;50.968;6.828;2023-02-28T01:54:20;0.10;1.00
21590;DHT22;10957;50.968;6.828;2023-02-28T01:59:40;0.10;1.00
21590;DHT22;10957;50.968;6.828;2023-02-28T02:04:58;0.20;1.00
21590;DHT22;10957;50.968;6.828;2023-02-28T02:10:21;0.00;1.00
21590;DHT22;10957;50.968;6.828;2023-02-28T02:15:34;-0.10;1.00
21590;DHT22;10957;50.968;6.828;2023-02-28T02:21:27;0.00;1.00
21590;DHT22;10957;50.968;6.828;2023-02-28T02:26:42;-0.10;1.00
21590;DHT22;10957;50.968;6.828;2023-02-28T02:31:51;0.10;1.00
21590;DHT22;10957;50.968;6.828;2023-02-28T02:37:07;0.40;1.00
21590;DHT22;10957;50.968;6.828;2023-02-28T02:42:31;0.20;1.00
21590;DHT22;10957;50.968;6.828;2023-02-28T02:47:37;0.20;1.00
21590;DHT22;10957;50.968;6.828;2023-02-28T02:52:47;-0.10;1.00
21590;DHT22;10957;50.968;6.828;2023-02-28T02:58:05;-0.40;1.00
21590;DHT22;10957;50.968;6.828;2023-02-28T03:03:09;-0.40;1.00
21590;DHT22;10957;50.968;6.828;2023-02-28T03:08:12;-0.50;1.00
21590;DHT22;10957;50.968;6.828;2023-02-28T03:13:39;-1.00;1.00
21590;DHT22;10957;50.968;6.828;2023-02-28T03:19:03;-0.80;1.00
21590;DHT22;10957;50.968;6.828;2023-02-28T03:24:19;-0.70;1.00
21590;DHT22;10957;50.968;6.828;2023-02-28T03:29:37;-0.70;1.00
21590;DHT22;10957;50.968;6.828;2023-02-28T03:34:46;-0.80;1.00
21590;DHT22;10957;50.968;6.828;2023-02-28T03:40:02;-0.80;1.00
21590;DHT22;10957;50.968;6.828;2023-02-28T03:45:14;-0.80;1.00
21590;DHT22;10957;50.968;6.828;2023-02-28T03:50:24;-0.90;1.00
21590;DHT22;10957;50.968;6.828;2023-02-28T03:55:30;-0.80;1.00
21590;DHT22;10957;50.968;6.828;2023-02-28T04:00:38;-1.30;1.00
21590;DHT22;10957;50.968;6.828;2023-02-28T04:05:51;-1.10;1.00
21590;DHT22;10957;50.968;6.828;2023-02-28T04:10:58;-1.70;1.00
21590;DHT22;10957;50.968;6.828;2023-02-28T04:16:00;-1.10;1.00
21590;DHT22;10957;50.968;6.828;2023-02-28T04:21:01;-1.20;1.00
21590;DHT22;10957;50.968;6.828;2023-02-28T04:26:02;-1.10;1.00
21590;DHT22;10957;50.968;6.828;2023-02-28T04:31:04;-1.30;1.00
21590;DHT22;10957;50.968;6.828;2023-02-28T04:36:07;-1.30;1.00
21590;DHT22;10957;50.968;6.828;2023-02-28T04:41:09;-1.50;1.00
21590;DHT22;10957;50.968;6.828;2023-02-28T04:46:10;-1.50;1.00
21590;DHT22;10957;50.968;6.828;2023-02-28T04:51:14;-1.40;1.00
21590;DHT22;10957;50.968;6.828;2023-02-28T04:56:17;-1.20;1.00
21590;DHT22;10957;50.968;6.828;2023-02-28T05:01:23;-1.40;1.00
21590;DHT22;10957;50.968;6.828;2023-02-28T05:06:26;-1.10;1.00
21590;DHT22;10957;50.968;6.828;2023-02-28T05:11:30;-1.20;1.00
21590;DHT22;10957;50.968;6.828;2023-02-28T05:16:35;-1.20;1.00
21590;DHT22;10957;50.968;6.828;2023-02-28T05:21:40;-0.90;1.00
21590;DHT22;10957;50.968;6.828;2023-02-28T05:26:42;-1.10;1.00
21590;DHT22;10957;50.968;6.828;2023-02-28T05:31:44;-1.40;1.00
21590;DHT22;10957;50.968;6.828;2023-02-28T05:36:45;-0.80;1.00
21590;DHT22;10957;50.968;6.828;2023-02-28T05:41:46;-1.20;1.00
21590;DHT22;10957;50.968;6.828;2023-02-28T05:46:47;-1.60;1.00
21590;DHT22;10957;50.968;6.828;2023-02-28T05:51:48;-1.10;1.00
21590;DHT22;10957;50.968;6.828;2023-02-28T05:56:50;-1.20;1.00
21590;DHT22;10957;50.968;6.828;2023-02-28T06:01:51;-1.00;1.00
21590;DHT22;10957;50.968;6.828;2023-02-28T06:06:55;-0.80;1.00
21590;DHT22;10957;50.968;6.828;2023-02-28T06:12:00;-1.00;1.00
21590;DHT22;10957;50.968;6.828;2023-02-28T06:17:02;-1.20;1.00
21590;DHT22;10957;50.968;6.828;2023-02-28T06:22:03;-1.20;1.00
21590;DHT22;10957;50.968;6.828;2023-02-28T06:27:05;-1.00;1.00
21590;DHT22;10957;50.968;6.828;2023-02-28T06:32:06;-1.10;1.00
21590;DHT22;10957;50.968;6.828;2023-02-28T06:37:07;-0.90;1.00
21590;DHT22;10957;50.968;6.828;2023-02-28T06:42:08;-1.10;1.00
21590;DHT22;10957;50.968;6.828;2023-02-28T06:47:10;-1.00;1.00
21590;DHT22;10957;50.968;6.828;2023-02-28T06:52:11;-0.60;1.00
21590;DHT22;10957;50.968;6.828;2023-02-28T06:57:12;-0.80;1.00
21590;DHT22;10957;50.968;6.828;2023-02-28T07:02:13;-0.60;1.00
21590;DHT22;10957;50.968;6.828;2023-02-28T07:07:14;-0.80;1.00
21590;DHT22;10957;50.968;6.828;2023-02-28T07:12:16;-0.40;1.00
21590;DHT22;10957;50.968;6.828;2023-02-28T07:17:17;-0.40;1.00
21590;DHT22;10957;50.968;6.828;2023-02-28T07:22:18;-0.20;1.00
21590;DHT22;10957;50.968;6.828;2023-02-28T07:27:19;-0.20;1.00
21590;DHT22;10957;50.968;6.828;2023-02-28T07:32:24;0.00;1.00
21590;DHT22;10957;50.968;6.828;2023-02-28T07:37:25;0.10;1.00
21590;DHT22;10957;50.968;6.828;2023-02-28T07:42:27;0.20;1.00
21590;DHT22;10957;50.968;6.828;2023-02-28T07:47:31;0.50;1.00
21590;DHT22;10957;50.968;6.828;2023-02-28T07:52:33;0.90;99.90
21590;DHT22;10957;50.968;6.828;2023-02-28T07:57:35;0.90;99.90
21590;DHT22;10957;50.968;6.828;2023-02-28T08:02:36;1.30;99.90
21590;DHT22;10957;50.968;6.828;2023-02-28T08:07:37;1.40;99.90
21590;DHT22;10957;50.968;6.828;2023-02-28T08:12:38;1.60;99.90
21590;DHT22;10957;50.968;6.828;2023-02-28T08:17:39;1.60;99.90
21590;DHT22;10957;50.968;6.828;2023-02-28T08:22:41;1.70;99.90
21590;DHT22;10957;50.968;6.828;2023-02-28T08:27:42;2.10;99.90
21590;DHT22;10957;50.968;6.828;2023-02-28T08:32:43;2.00;99.90
21590;DHT22;10957;50.968;6.828;2023-02-28T08:37:47;1.80;99.90
21590;DHT22;10957;50.968;6.828;2023-02-28T08:42:48;2.70;99.90
21590;DHT22;10957;50.968;6.828;2023-02-28T08:47:50;2.80;99.90
21590;DHT22;10957;50.968;6.828;2023-02-28T08:52:53;2.90;99.90
21590;DHT22;10957;50.968;6.828;2023-02-28T08:57:54;3.20;99.90
21590;DHT22;10957;50.968;6.828;2023-02-28T09:02:55;3.10;99.90
21590;DHT22;10957;50.968;6.828;2023-02-28T09:07:57;3.30;99.90
21590;DHT22;10957;50.968;6.828;2023-02-28T09:12:58;3.40;99.90
21590;DHT22;10957;50.968;6.828;2023-02-28T09:17:59;3.60;99.90
21590;DHT22;10957;50.968;6.828;2023-02-28T09:23:00;3.60;99.90
21590;DHT22;10957;50.968;6.828;2023-02-28T09:28:02;3.40;99.90
21590;DHT22;10957;50.968;6.828;2023-02-28T09:33:03;3.80;99.90
21590;DHT22;10957;50.968;6.828;2023-02-28T09:38:05;3.80;99.90
21590;DHT22;10957;50.968;6.828;2023-02-28T09:43:10;4.20;99.90
21590;DHT22;10957;50.968;6.828;2023-02-28T09:48:21;3.70;99.90
21590;DHT22;10957;50.968;6.828;2023-02-28T09:53:35;3.90;99.90
21590;DHT22;10957;50.968;6.828;2023-02-28T10:04:08;4.20;99.90
21590;DHT22;10957;50.968;6.828;2023-02-28T10:09:27;3.90;99.90
21590;DHT22;10957;50.968;6.828;2023-02-28T10:14:33;4.00;99.90
21590;DHT22;10957;50.968;6.828;2023-02-28T10:19:52;4.50;99.90
21590;DHT22;10957;50.968;6.828;2023-02-28T10:24:55;4.40;99.90
21590;DHT22;10957;50.968;6.828;2023-02-28T10:30:03;4.40;99.90
21590;DHT22;10957;50.968;6.828;2023-02-28T10:45:20;4.60;99.90
21590;DHT22;10957;50.968;6.828;2023-02-28T10:50:37;4.50;99.90
21590;DHT22;10957;50.968;6.828;2023-02-28T10:55:43;4.90;99.90
21590;DHT22;10957;50.968;6.828;2023-02-28T11:00:44;4.40;99.90
21590;DHT22;10957;50.968;6.828;2023-02-28T11:05:47;4.40;99.90
21590;DHT22;10957;50.968;6.828;2023-02-28T11:11:03;4.90;99.90
21590;DHT22;10957;50.968;6.828;2023-02-28T11:16:07;4.60;99.90
21590;DHT22;10957;50.968;6.828;2023-02-28T11:21:15;5.10;99.90
21590;DHT22;10957;50.968;6.828;2023-02-28T11:26:45;5.30;99.90
21590;DHT22;10957;50.968;6.828;2023-02-28T11:32:16;5.10;99.90
21590;DHT22;10957;50.968;6.828;2023-02-28T11:37:19;5.10;99.90
21590;DHT22;10957;50.968;6.828;2023-02-28T11:42:31;5.40;99.90
21590;DHT22;10957;50.968;6.828;2023-02-28T11:47:47;5.40;99.90
21590;DHT22;10957;50.968;6.828;2023-02-28T12:04:09;5.60;99.90
21590;DHT22;10957;50.968;6.828;2023-02-28T12:09:30;5.40;99.90
21590;DHT22;10957;50.968;6.828;2023-02-28T12:25:48;5.80;99.90
21590;DHT22;10957;50.968;6.828;2023-02-28T12:36:17;4.90;99.90
21590;DHT22;10957;50.968;6.828;2023-02-28T12:46:48;6.00;99.90
21590;DHT22;10957;50.968;6.828;2023-02-28T12:51:52;5.70;99.90
21590;DHT22;10957;50.968;6.828;2023-02-28T12:57:09;5.60;99.90
21590;DHT22;10957;50.968;6.828;2023-02-28T13:03:02;5.90;99.90
21590;DHT22;10957;50.968;6.828;2023-02-28T13:13:30;5.90;99.90
21590;DHT22;10957;50.968;6.828;2023-02-28T13:18:38;6.20;99.90
21590;DHT22;10957;50.968;6.828;2023-02-28T13:34:16;6.50;99.90
21590;DHT22;10957;50.968;6.828;2023-02-28T13:55:36;6.60;99.90
21590;DHT22;10957;50.968;6.828;2023-02-28T14:06:29;6.80;99.90
21590;DHT22;10957;50.968;6.828;2023-02-28T14:11:35;6.60;99.90
21590;DHT22;10957;50.968;6.828;2023-02-28T14:16:44;6.90;99.90
21590;DHT22;10957;50.968;6.828;2023-02-28T14:22:15;6.60;99.90
21590;DHT22;10957;50.968;6.828;2023-02-28T14:38:22;6.50;99.90
21590;DHT22;10957;50.968;6.828;2023-02-28T14:43:27;6.30;99.90
21590;DHT22;10957;50.968;6.828;2023-02-28T14:48:29;6.60;99.90
21590;DHT22;10957;50.968;6.828;2023-02-28T14:53:36;6.60;99.90
21590;DHT22;10957;50.968;6.828;2023-02-28T14:58:38;6.50;99.90
21590;DHT22;10957;50.968;6.828;2023-02-28T15:03:39;6.70;99.90
21590;DHT22;10957;50.968;6.828;2023-02-28T15:08:41;6.10;99.90
21590;DHT22;10957;50.968;6.828;2023-02-28T15:23:54;5.80;99.90
21590;DHT22;10957;50.968;6.828;2023-02-28T15:29:01;6.40;99.90
21590;DHT22;10957;50.968;6.828;2023-02-28T15:34:06;5.90;99.90
21590;DHT22;10957;50.968;6.828;2023-02-28T15:39:26;6.20;99.90
21590;DHT22;10957;50.968;6.828;2023-02-28T15:44:34;6.10;99.90
21590;DHT22;10957;50.968;6.828;2023-02-28T15:49:45;6.20;99.90
21590;DHT22;10957;50.968;6.828;2023-02-28T15:54:47;5.70;99.90
21590;DHT22;10957;50.968;6.828;2023-02-28T15:59:55;5.60;99.90
21590;DHT22;10957;50.968;6.828;2023-02-28T16:10:12;6.00;99.90
21590;DHT22;10957;50.968;6.828;2023-02-28T16:15:17;5.80;99.90
21590;DHT22;10957;50.968;6.828;2023-02-28T16:20:28;5.20;99.90
21590;DHT22;10957;50.968;6.828;2023-02-28T16:25:40;5.70;99.90
21590;DHT22;10957;50.968;6.828;2023-02-28T16:30:43;5.60;99.90
21590;DHT22;10957;50.968;6.828;2023-02-28T16:35:44;5.30;99.90
21590;DHT22;10957;50.968;6.828;2023-02-28T16:40:45;5.00;99.90
21590;DHT22;10957;50.968;6.828;2023-02-28T16:45:46;5.10;99.90
21590;DHT22;10957;50.968;6.828;2023-02-28T16:50:48;5.20;99.90
21590;DHT22;10957;50.968;6.828;2023-02-28T16:55:49;5.10;99.90
21590;DHT22;10957;50.968;6.828;2023-02-28T17:00:51;5.00;99.90
21590;DHT22;10957;50.968;6.828;2023-02-28T17:05:53;4.70;99.90
21590;DHT22;10957;50.968;6.828;2023-02-28T17:10:54;4.60;99.90
21590;DHT22;10957;50.968;6.828;2023-02-28T17:15:55;4.40;99.90
21590;DHT22;10957;50.968;6.828;2023-02-28T17:20:57;4.10;99.90
21590;DHT22;10957;50.968;6.828;2023-02-28T17:25:58;4.30;99.90
21590;DHT22;10957;50.968;6.828;2023-02-28T17:30:59;3.80;99.90
21590;DHT22;10957;50.968;6.828;2023-02-28T17:36:00;3.70;99.90
21590;DHT22;10957;50.968;6.828;2023-02-28T17:41:02;3.50;99.90
21590;DHT22;10957;50.968;6.828;2023-02-28T17:46:04;3.80;99.90
21590;DHT22;10957;50.968;6.828;2023-02-28T17:51:06;3.50;99.90
21590;DHT22;10957;50.968;6.828;2023-02-28T17:56:18;3.60;99.90
21590;DHT22;10957;50.968;6.828;2023-02-28T18:01:21;3.40;99.90
21590;DHT22;10957;50.968;6.828;2023-02-28T18:06:24;3.40;99.90
21590;DHT22;10957;50.968;6.828;2023-02-28T18:11:26;3.10;99.90
21590;DHT22;10957;50.968;6.828;2023-02-28T18:16:44;3.10;99.90
21590;DHT22;10957;50.968;6.828;2023-02-28T18:21:50;3.00;99.90
21590;DHT22;10957;50.968;6.828;2023-02-28T18:26:51;2.40;99.90
21590;DHT22;10957;50.968;6.828;2023-02-28T18:31:54;2.60;99.90
21590;DHT22;10957;50.968;6.828;2023-02-28T18:36:55;2.90;99.90
21590;DHT22;10957;50.968;6.828;2023-02-28T18:41:57;2.80;99.90
21590;DHT22;10957;50.968;6.828;2023-02-28T18:46:59;2.70;99.90
21590;DHT22;10957;50.968;6.828;2023-02-28T18:52:01;2.40;99.90
21590;DHT22;10957;50.968;6.828;2023-02-28T18:57:02;2.60;99.90
21590;DHT22;10957;50.968;6.828;2023-02-28T19:02:04;2.50;99.90
21590;DHT22;10957;50.968;6.828;2023-02-28T19:07:05;2.60;99.90
21590;DHT22;10957;50.968;6.828;2023-02-28T19:12:06;2.40;99.90
21590;DHT22;10957;50.968;6.828;2023-02-28T19:17:07;2.60;99.90
21590;DHT22;10957;50.968;6.828;2023-02-28T19:22:08;2.50;99.90
21590;DHT22;10957;50.968;6.828;2023-02-28T19:27:10;2.50;99.90
21590;DHT22;10957;50.968;6.828;2023-02-28T19:32:11;2.30;99.90
21590;DHT22;10957;50.968;6.828;2023-02-28T19:37:13;2.20;99.90
21590;DHT22;10957;50.968;6.828;2023-02-28T19:42:17;2.20;99.90
21590;DHT22;10957;50.968;6.828;2023-02-28T19:47:18;2.30;99.90
21590;DHT22;10957;50.968;6.828;2023-02-28T19:52:20;1.70;99.90
21590;DHT22;10957;50.968;6.828;2023-02-28T19:57:22;1.80;99.90
21590;DHT22;10957;50.968;6.828;2023-02-28T20:02:23;1.90;99.90
21590;DHT22;10957;50.968;6.828;2023-02-28T20:07:25;1.80;99.90
21590;DHT22;10957;50.968;6.828;2023-02-28T20:12:27;1.50;99.90
21590;DHT22;10957;50.968;6.828;2023-02-28T20:17:28;1.30;99.90
21590;DHT22;10957;50.968;6.828;2023-02-28T20:22:30;1.20;99.90
21590;DHT22;10957;50.968;6.828;2023-02-28T20:27:31;1.40;99.90
21590;DHT22;10957;50.968;6.828;2023-02-28T20:32:34;1.40;99.90
21590;DHT22;10957;50.968;6.828;2023-02-28T20:37:38;1.20;99.90
21590;DHT22;10957;50.968;6.828;2023-02-28T20:42:40;1.10;99.90
21590;DHT22;10957;50.968;6.828;2023-02-28T20:47:41;0.90;99.90
21590;DHT22;10957;50.968;6.828;2023-02-28T20:52:43;1.10;99.90
21590;DHT22;10957;50.968;6.828;2023-02-28T20:57:44;1.00;99.90
21590;DHT22;10957;50.968;6.828;2023-02-28T21:02:46;0.80;99.90
21590;DHT22;10957;50.968;6.828;2023-02-28T21:07:47;0.80;99.90
21590;DHT22;10957;50.968;6.828;2023-02-28T21:12:49;0.70;99.90
21590;DHT22;10957;50.968;6.828;2023-02-28T21:17:50;0.70;99.90
21590;DHT22;10957;50.968;6.828;2023-02-28T21:22:51;0.80;99.90
21590;DHT22;10957;50.968;6.828;2023-02-28T21:27:53;0.40;99.90
21590;DHT22;10957;50.968;6.828;2023-02-28T21:32:55;0.20;99.90
21590;DHT22;10957;50.968;6.828;2023-02-28T21:37:57;0.40;99.90
21590;DHT22;10957;50.968;6.828;2023-02-28T21:42:59;0.10;99.90
21590;DHT22;10957;50.968;6.828;2023-02-28T21:48:00;0.30;99.90
21590;DHT22;10957;50.968;6.828;2023-02-28T21:53:01;0.40;1.00
21590;DHT22;10957;50.968;6.828;2023-02-28T21:58:04;0.30;1.00
21590;DHT22;10957;50.968;6.828;2023-02-28T22:03:07;0.30;1.00
21590;DHT22;10957;50.968;6.828;2023-02-28T22:08:10;0.10;1.00
21590;DHT22;10957;50.968;6.828;2023-02-28T22:13:13;0.40;1.00
21590;DHT22;10957;50.968;6.828;2023-02-28T22:18:16;0.20;1.00
21590;DHT22;10957;50.968;6.828;2023-02-28T22:23:19;0.30;1.00
21590;DHT22;10957;50.968;6.828;2023-02-28T22:28:22;0.10;1.00
21590;DHT22;10957;50.968;6.828;2023-02-28T22:33:26;0.20;1.00
21590;DHT22;10957;50.968;6.828;2023-02-28T22:38:29;-0.20;1.00
21590;DHT22;10957;50.968;6.828;2023-02-28T22:43:37;-0.20;1.00
21590;DHT22;10957;50.968;6.828;2023-02-28T22:48:40;-0.30;1.00
21590;DHT22;10957;50.968;6.828;2023-02-28T22:53:45;-0.20;1.00
21590;DHT22;10957;50.968;6.828;2023-02-28T22:58:51;-0.50;1.00
21590;DHT22;10957;50.968;6.828;2023-02-28T23:03:53;-0.60;1.00
21590;DHT22;10957;50.968;6.828;2023-02-28T23:08:57;-0.70;1.00
21590;DHT22;10957;50.968;6.828;2023-02-28T23:13:59;-0.90;1.00
21590;DHT22;10957;50.968;6.828;2023-02-28T23:19:02;-0.80;1.00
21590;DHT22;10957;50.968;6.828;2023-02-28T23:24:05;-1.00;1.00
21590;DHT22;10957;50.968;6.828;2023-02-28T23:29:11;-1.10;1.00
21590;DHT22;10957;50.968;6.828;2023-02-28T23:34:13;-1.10;1.00
21590;DHT22;10957;50.968;6.828;2023-02-28T23:39:16;-1.10;1.00
21590;DHT22;10957;50.968;6.828;2023-02-28T23:44:17;-1.30;1.00
21590;DHT22;10957;50.968;6.828;2023-02-28T23:49:19;-1.10;1.00
21590;DHT22;10957;50.968;6.828;2023-02-28T23:54:20;-1.70;1.00
21590;DHT22;10957;50.968;6.828;2023-02-28T23:59:22;-1.40;1.00
